Time,TemperatureF,DewpointF,PressureIn,WindDirection,WindDirectionDegrees,WindSpeedMPH,WindSpeedGustMPH,Humidity,HourlyPrecipIn,Conditions,Clouds,dailyrainin,SoftwareType,DateUTC
2013-04-26 00:00:00,76.3,70.4,29.99,South,169,2.0,5.0,82,0.00,,,0.00,VWS V14.01,2013-04-26 04:00:00,
2013-04-26 00:30:00,75.8,70.6,29.98,ESE,112,2.0,6.0,84,0.00,,,0.00,VWS V14.01,2013-04-26 04:30:00,
2013-04-26 01:00:00,76.5,70.2,29.97,South,188,0.0,5.0,81,0.00,,,0.00,VWS V14.01,2013-04-26 05:00:00,
2013-04-26 01:31:00,76.1,70.2,29.96,SE,128,0.0,4.0,82,0.00,,,0.00,VWS V14.01,2013-04-26 05:31:00,
2013-04-26 02:00:00,74.1,69.3,29.96,SSE,149,3.0,4.0,85,0.00,,,0.00,VWS V14.01,2013-04-26 06:00:00,
2013-04-26 02:30:00,74.0,69.6,29.95,SSE,150,1.0,4.0,86,0.00,,,0.00,VWS V14.01,2013-04-26 06:30:00,
2013-04-26 03:01:00,73.5,69.1,29.93,SSE,150,2.0,3.0,86,0.00,,,0.00,VWS V14.01,2013-04-26 07:01:00,
2013-04-26 03:31:00,73.0,68.9,29.93,SSE,150,0.0,4.0,87,0.00,,,0.00,VWS V14.01,2013-04-26 07:31:00,
2013-04-26 04:00:00,72.8,68.7,29.93,SSE,150,3.0,3.0,87,0.00,,,0.00,VWS V14.01,2013-04-26 08:00:00,
2013-04-26 04:30:00,72.5,68.8,29.93,SSE,150,0.0,3.0,88,0.00,,,0.00,VWS V14.01,2013-04-26 08:30:00,
2013-04-26 05:01:00,71.9,68.2,29.93,SSE,153,3.0,4.0,88,0.00,,,0.00,VWS V14.01,2013-04-26 09:01:00,
2013-04-26 05:30:00,71.7,68.0,29.94,SSE,153,2.0,3.0,88,0.00,,,0.00,VWS V14.01,2013-04-26 09:30:00,
2013-04-26 06:00:00,71.5,68.1,29.94,SSE,153,0.0,3.0,89,0.00,,,0.00,VWS V14.01,2013-04-26 10:00:00,
2013-04-26 06:31:00,71.4,67.7,29.95,South,178,3.0,3.0,88,0.00,,,0.00,VWS V14.01,2013-04-26 10:31:00,
2013-04-26 07:00:00,71.8,68.1,29.95,South,179,1.0,4.0,88,0.00,,,0.00,VWS V14.01,2013-04-26 11:00:00,
2013-04-26 07:31:00,73.2,69.1,29.96,South,179,1.0,2.0,87,0.00,,,0.00,VWS V14.01,2013-04-26 11:31:00,
2013-04-26 08:00:00,76.4,70.9,29.97,South,179,1.0,3.0,83,0.00,,,0.00,VWS V14.01,2013-04-26 12:00:00,
2013-04-26 08:30:00,80.2,71.9,29.98,ESE,121,3.0,4.0,76,0.00,,,0.00,VWS V14.01,2013-04-26 12:30:00,
2013-04-26 09:01:00,80.4,71.8,29.99,NE,38,1.0,4.0,75,0.00,,,0.00,VWS V14.01,2013-04-26 13:01:00,
2013-04-26 09:30:00,82.0,71.7,30.00,ENE,71,1.0,7.0,71,0.00,,,0.00,VWS V14.01,2013-04-26 13:30:00,
2013-04-26 10:00:00,81.1,70.8,30.00,East,93,1.0,7.0,71,0.00,,,0.00,VWS V14.01,2013-04-26 14:00:00,
2013-04-26 10:30:00,80.9,71.4,30.00,NE,53,6.0,8.0,73,0.00,,,0.00,VWS V14.01,2013-04-26 14:30:00,
2013-04-26 11:01:00,81.4,71.9,29.99,ENE,73,5.0,9.0,73,0.00,,,0.00,VWS V14.01,2013-04-26 15:01:00,
2013-04-26 11:30:00,82.2,71.9,29.99,NE,53,4.0,9.0,71,0.00,,,0.00,VWS V14.01,2013-04-26 15:30:00,
2013-04-26 12:00:00,81.7,71.0,29.99,NE,55,4.0,10.0,70,0.00,,,0.00,VWS V14.01,2013-04-26 16:00:00,
2013-04-26 12:30:00,82.2,71.9,29.99,ENE,63,3.0,10.0,71,0.00,,,0.00,VWS V14.01,2013-04-26 16:30:00,
2013-04-26 13:00:00,82.0,71.7,29.98,ENE,60,7.0,9.0,71,0.00,,,0.00,VWS V14.01,2013-04-26 17:00:00,
2013-04-26 13:31:00,81.9,71.6,29.97,ENE,67,5.0,8.0,71,0.00,,,0.00,VWS V14.01,2013-04-26 17:31:00,
2013-04-26 14:00:00,82.9,72.1,29.96,NNE,28,6.0,7.0,70,0.00,,,0.00,VWS V14.01,2013-04-26 18:00:00,
2013-04-26 14:31:00,82.0,72.1,29.95,ENE,58,3.0,9.0,72,0.00,,,0.00,VWS V14.01,2013-04-26 18:31:00,
2013-04-26 15:00:00,82.3,71.5,29.94,ENE,64,1.0,7.0,70,0.00,,,0.00,VWS V14.01,2013-04-26 19:00:00,
2013-04-26 15:31:00,81.3,72.6,29.94,ENE,61,7.0,10.0,75,0.00,,,0.00,VWS V14.01,2013-04-26 19:31:00,
2013-04-26 16:00:00,80.0,72.2,29.93,NNE,25,5.0,8.0,77,0.00,,,0.00,VWS V14.01,2013-04-26 20:00:00,
2013-04-26 16:30:00,81.0,72.3,29.93,ENE,57,2.0,7.0,75,0.00,,,0.00,VWS V14.01,2013-04-26 20:30:00,
2013-04-26 17:00:00,81.4,72.3,29.92,East,90,5.0,8.0,74,0.00,,,0.00,VWS V14.01,2013-04-26 21:00:00,
2013-04-26 17:31:00,80.8,71.7,29.93,NE,36,4.0,7.0,74,0.00,,,0.00,VWS V14.01,2013-04-26 21:31:00,
2013-04-26 18:00:00,80.1,71.5,29.93,East,79,1.0,9.0,75,0.00,,,0.00,VWS V14.01,2013-04-26 22:00:00,
2013-04-26 18:31:00,79.1,70.9,29.94,ENE,71,1.0,8.0,76,0.00,,,0.00,VWS V14.01,2013-04-26 22:31:00,
2013-04-26 19:00:00,78.7,70.9,29.95,East,95,5.0,8.0,77,0.00,,,0.00,VWS V14.01,2013-04-26 23:00:00,
2013-04-26 19:30:00,78.5,71.4,29.95,East,98,1.0,7.0,79,0.00,,,0.00,VWS V14.01,2013-04-26 23:30:00,
2013-04-26 20:31:00,78.1,71.1,29.97,ENE,76,1.0,6.0,79,0.00,,,0.00,VWS V14.01,2013-04-27 00:31:00,
2013-04-26 21:00:00,77.9,70.5,29.98,ENE,68,2.0,5.0,78,0.00,,,0.00,VWS V14.01,2013-04-27 01:00:00,
2013-04-26 21:31:00,77.9,70.5,29.98,ENE,59,2.0,5.0,78,0.00,,,0.00,VWS V14.01,2013-04-27 01:31:00,
2013-04-26 22:01:00,78.0,71.7,29.99,ENE,62,0.0,9.0,81,0.00,,,0.00,VWS V14.01,2013-04-27 02:01:00,
2013-04-26 22:31:00,77.0,71.1,29.99,ENE,62,0.0,2.0,82,0.00,,,0.00,VWS V14.01,2013-04-27 02:31:00,
2013-04-26 23:01:00,77.1,70.8,29.98,NE,41,1.0,5.0,81,0.00,,,0.00,VWS V14.01,2013-04-27 03:01:00,
2013-04-26 23:30:00,77.4,70.4,29.98,ENE,76,1.0,5.0,79,0.00,,,0.00,VWS V14.01,2013-04-27 03:30:00,